Time;durP1;ratioP1;P1;durP2;ratioP2;P2;SDS_P1;SDS_P2;PMS_P1;PMS_P2;Temp;Humidity;BMP_temperature;BMP_pressure;BME280_temperature;BME280_humidity;BME280_pressure;Samples;Min_cycle;Max_cycle;Signal;HPM_P1;HPM_P2
2023/07/31 00:01:47;;;;;;;38.15;10.43;;;;;;;;;;5002000;28;25074;-67
2023/07/31 00:04:13;;;;;;;34.60;9.90;;;;;;;;;;5008210;28;25072;-67
2023/07/31 00:06:39;;;;;;;39.20;10.85;;;;;;;;;;5007726;28;25061;-69
2023/07/31 00:09:05;;;;;;;30.00;10.85;;;;;;;;;;5014527;28;25131;-70
2023/07/31 00:11:31;;;;;;;37.83;10.13;;;;;;;;;;5003655;28;25077;-68
2023/07/31 00:13:57;;;;;;;35.33;10.75;;;;;;;;;;5019593;28;25128;-68
2023/07/31 00:16:23;;;;;;;32.40;8.65;;;;;;;;;;5012513;28;25077;-68
2023/07/31 00:18:49;;;;;;;32.45;9.80;;;;;;;;;;5008843;28;25016;-67
2023/07/31 00:21:15;;;;;;;31.63;8.60;;;;;;;;;;5010601;28;25087;-67
2023/07/31 00:23:41;;;;;;;30.23;9.30;;;;;;;;;;5011210;28;25058;-68
2023/07/31 00:26:07;;;;;;;28.55;9.55;;;;;;;;;;5010813;28;25045;-68
2023/07/31 00:28:32;;;;;;;31.80;8.48;;;;;;;;;;5008810;28;25069;-66
2023/07/31 00:30:58;;;;;;;29.98;10.18;;;;;;;;;;5010509;28;25074;-68
2023/07/31 00:33:24;;;;;;;28.20;9.52;;;;;;;;;;5010550;28;25092;-68
2023/07/31 00:35:50;;;;;;;32.17;8.57;;;;;;;;;;5006366;28;25057;-68
2023/07/31 00:38:16;;;;;;;29.60;8.07;;;;;;;;;;5007127;28;25114;-68
2023/07/31 00:40:42;;;;;;;38.85;10.48;;;;;;;;;;5012819;28;25053;-68
2023/07/31 00:43:08;;;;;;;25.45;9.60;;;;;;;;;;5012352;28;25166;-67
2023/07/31 00:45:35;;;;;;;37.00;10.02;;;;;;;;;;5012917;28;25066;-67
2023/07/31 00:48:01;;;;;;;34.88;9.30;;;;;;;;;;5007130;28;25058;-67
2023/07/31 00:50:27;;;;;;;37.60;9.50;;;;;;;;;;5008297;28;25065;-67
2023/07/31 00:52:53;;;;;;;32.10;8.52;;;;;;;;;;5011420;28;25076;-67
2023/07/31 00:55:21;;;;;;;27.15;8.27;;;;;;;;;;5003373;28;25147;-68
2023/07/31 00:57:47;;;;;;;46.25;10.48;;;;;;;;;;5019578;28;25146;-69
2023/07/31 01:00:13;;;;;;;39.40;10.50;;;;;;;;;;5001428;28;25061;-68
2023/07/31 01:02:39;;;;;;;40.45;9.98;;;;;;;;;;5007504;28;25073;-67
2023/07/31 01:05:06;;;;;;;30.90;9.65;;;;;;;;;;5007906;28;25103;-68
2023/07/31 01:07:40;;;;;;;30.02;9.18;;;;;;;;;;5004726;28;25147;-67
2023/07/31 01:10:11;;;;;;;38.15;10.77;;;;;;;;;;5017220;28;25179;-68
2023/07/31 01:12:38;;;;;;;38.90;10.07;;;;;;;;;;5007686;28;25117;-67
2023/07/31 01:15:05;;;;;;;28.80;9.00;;;;;;;;;;5016521;28;25089;-68
2023/07/31 01:17:31;;;;;;;26.83;8.43;;;;;;;;;;5014736;28;25103;-68
2023/07/31 01:20:00;;;;;;;31.10;9.95;;;;;;;;;;5004722;28;25116;-68
2023/07/31 01:22:46;;;;;;;19.55;8.00;;;;;;;;;;5004727;28;25134;-67
2023/07/31 01:25:12;;;;;;;25.17;8.20;;;;;;;;;;5001804;28;25084;-69
2023/07/31 01:27:44;;;;;;;28.52;8.68;;;;;;;;;;5012952;28;25070;-67
2023/07/31 01:30:16;;;;;;;29.20;9.57;;;;;;;;;;5011920;28;25088;-67
2023/07/31 01:32:43;;;;;;;29.10;8.35;;;;;;;;;;5005433;28;25058;-66
2023/07/31 01:35:10;;;;;;;24.48;8.32;;;;;;;;;;5008247;28;25160;-69
2023/07/31 01:37:36;;;;;;;19.20;6.50;;;;;;;;;;5002389;28;25134;-66
2023/07/31 01:40:02;;;;;;;28.50;8.02;;;;;;;;;;5004542;28;25041;-65
2023/07/31 01:42:28;;;;;;;32.63;8.75;;;;;;;;;;5005846;28;25113;-69
2023/07/31 01:44:54;;;;;;;32.28;8.48;;;;;;;;;;5012319;28;25103;-67
2023/07/31 01:47:20;;;;;;;29.55;8.38;;;;;;;;;;5007743;28;25062;-67
2023/07/31 01:49:46;;;;;;;26.25;8.00;;;;;;;;;;5003145;28;25096;-68
2023/07/31 01:52:12;;;;;;;27.40;8.40;;;;;;;;;;5007949;28;25067;-67
2023/07/31 01:54:37;;;;;;;24.90;7.25;;;;;;;;;;5002283;28;25158;-67
2023/07/31 01:57:03;;;;;;;30.67;8.90;;;;;;;;;;5006287;28;25080;-68
2023/07/31 01:59:29;;;;;;;22.20;8.43;;;;;;;;;;5013122;28;25154;-69
2023/07/31 02:01:55;;;;;;;26.77;8.95;;;;;;;;;;5002677;28;25072;-68
2023/07/31 02:04:21;;;;;;;32.17;9.40;;;;;;;;;;5014147;28;25066;-67
2023/07/31 02:06:47;;;;;;;27.60;9.18;;;;;;;;;;5000206;28;25087;-68
2023/07/31 02:09:13;;;;;;;29.35;8.80;;;;;;;;;;5010249;28;25051;-67
2023/07/31 02:11:39;;;;;;;31.00;8.75;;;;;;;;;;5015511;28;25062;-67
2023/07/31 02:14:05;;;;;;;33.10;9.45;;;;;;;;;;5014238;28;25134;-67
2023/07/31 02:16:31;;;;;;;27.02;8.77;;;;;;;;;;5005021;28;25143;-67
2023/07/31 02:18:57;;;;;;;38.10;10.05;;;;;;;;;;5007157;28;25071;-68
2023/07/31 02:21:23;;;;;;;35.00;9.93;;;;;;;;;;5017216;28;25061;-68
2023/07/31 02:23:49;;;;;;;34.35;9.18;;;;;;;;;;5012513;28;25067;-68
2023/07/31 02:26:15;;;;;;;32.53;9.18;;;;;;;;;;5041745;28;25079;-67
2023/07/31 02:28:43;;;;;;;24.48;8.30;;;;;;;;;;5013623;28;25062;-67
2023/07/31 02:31:09;;;;;;;31.95;8.18;;;;;;;;;;5008374;28;25053;-68
2023/07/31 02:33:35;;;;;;;23.00;8.43;;;;;;;;;;5006183;28;25138;-68
2023/07/31 02:36:01;;;;;;;26.83;9.18;;;;;;;;;;5012762;28;25154;-67
2023/07/31 02:38:27;;;;;;;30.75;9.40;;;;;;;;;;5013721;28;25108;-67
2023/07/31 02:40:53;;;;;;;21.35;7.75;;;;;;;;;;5006095;28;25063;-68
2023/07/31 02:43:19;;;;;;;25.23;9.02;;;;;;;;;;5018718;28;25170;-67
2023/07/31 02:45:45;;;;;;;26.20;9.02;;;;;;;;;;5008677;28;25060;-67
2023/07/31 02:48:10;;;;;;;26.42;7.65;;;;;;;;;;5008199;28;25096;-65
2023/07/31 02:50:37;;;;;;;28.27;8.98;;;;;;;;;;5006427;28;25070;-68
2023/07/31 02:53:03;;;;;;;25.15;8.77;;;;;;;;;;5016871;28;25173;-68
2023/07/31 02:55:29;;;;;;;17.80;7.13;;;;;;;;;;5019401;28;25119;-69
2023/07/31 02:57:55;;;;;;;26.73;8.35;;;;;;;;;;5010108;28;25080;-67
2023/07/31 03:00:21;;;;;;;25.83;8.05;;;;;;;;;;5014344;28;25094;-68
2023/07/31 03:02:47;;;;;;;26.75;8.07;;;;;;;;;;5008565;28;25094;-66
2023/07/31 03:05:13;;;;;;;32.53;9.05;;;;;;;;;;5010946;28;25063;-67
2023/07/31 03:07:39;;;;;;;19.98;8.07;;;;;;;;;;5011345;28;25097;-66
2023/07/31 03:10:05;;;;;;;22.80;7.93;;;;;;;;;;5004175;28;25070;-67
2023/07/31 03:12:31;;;;;;;35.10;9.23;;;;;;;;;;5011480;28;25075;-68
2023/07/31 03:14:57;;;;;;;25.90;8.10;;;;;;;;;;5018707;28;25094;-68
2023/07/31 03:17:23;;;;;;;23.92;7.95;;;;;;;;;;5014752;28;25062;-67
2023/07/31 03:19:49;;;;;;;26.27;7.93;;;;;;;;;;5012605;28;25089;-71
2023/07/31 03:22:15;;;;;;;23.55;7.35;;;;;;;;;;5019062;28;25090;-69
2023/07/31 03:24:41;;;;;;;27.80;7.80;;;;;;;;;;5020019;28;25072;-69
2023/07/31 03:27:07;;;;;;;23.33;7.95;;;;;;;;;;5008691;28;25084;-69
2023/07/31 03:29:33;;;;;;;23.83;8.20;;;;;;;;;;5015206;28;25136;-68
2023/07/31 03:31:59;;;;;;;24.65;7.28;;;;;;;;;;5017399;28;25099;-69
2023/07/31 03:34:26;;;;;;;25.85;8.60;;;;;;;;;;5014742;28;25094;-70
2023/07/31 03:36:52;;;;;;;23.58;7.43;;;;;;;;;;5011517;28;25156;-68
2023/07/31 03:39:19;;;;;;;18.75;6.78;;;;;;;;;;5018206;28;25075;-68
2023/07/31 03:41:45;;;;;;;27.45;8.30;;;;;;;;;;5004833;28;25145;-68
2023/07/31 03:44:11;;;;;;;27.23;7.85;;;;;;;;;;5005201;28;25144;-68
2023/07/31 03:46:37;;;;;;;28.38;8.07;;;;;;;;;;5018341;28;25059;-67
2023/07/31 03:49:03;;;;;;;25.92;8.07;;;;;;;;;;5014851;28;25061;-68
2023/07/31 03:51:28;;;;;;;22.73;7.43;;;;;;;;;;5010324;28;25137;-71
2023/07/31 03:53:54;;;;;;;21.80;7.10;;;;;;;;;;5006084;28;25107;-68
2023/07/31 03:56:20;;;;;;;22.55;8.00;;;;;;;;;;5023058;28;25081;-67
2023/07/31 03:58:46;;;;;;;24.92;7.07;;;;;;;;;;5026157;28;25080;-69
2023/07/31 04:01:12;;;;;;;19.83;6.50;;;;;;;;;;5016122;28;25064;-69
2023/07/31 04:03:38;;;;;;;20.95;6.50;;;;;;;;;;5025432;28;25083;-67
2023/07/31 04:06:06;;;;;;;19.77;7.25;;;;;;;;;;5032227;28;25135;-67
2023/07/31 04:08:33;;;;;;;19.08;7.10;;;;;;;;;;5022330;28;25113;-70
2023/07/31 04:10:59;;;;;;;22.58;6.22;;;;;;;;;;5032084;28;25054;-67
2023/07/31 04:13:27;;;;;;;23.25;6.55;;;;;;;;;;5008633;28;25075;-67
2023/07/31 04:15:54;;;;;;;21.45;6.82;;;;;;;;;;5009936;28;25093;-66
2023/07/31 04:18:20;;;;;;;16.33;6.38;;;;;;;;;;5014206;28;25055;-67
2023/07/31 04:20:46;;;;;;;15.48;6.00;;;;;;;;;;5019817;28;25063;-68
2023/07/31 04:23:12;;;;;;;21.02;5.55;;;;;;;;;;5012170;28;25113;-67
2023/07/31 04:25:38;;;;;;;19.73;6.88;;;;;;;;;;5007289;28;25092;-69
2023/07/31 04:28:04;;;;;;;22.45;7.53;;;;;;;;;;5010964;28;25072;-67
2023/07/31 04:30:30;;;;;;;15.43;6.88;;;;;;;;;;5004074;28;25068;-67
2023/07/31 04:32:56;;;;;;;21.40;6.95;;;;;;;;;;5005678;28;25137;-67
2023/07/31 04:35:22;;;;;;;18.45;6.70;;;;;;;;;;5017099;28;25083;-67
2023/07/31 04:37:48;;;;;;;22.45;6.50;;;;;;;;;;5004890;28;25103;-66
2023/07/31 04:40:14;;;;;;;22.73;6.95;;;;;;;;;;5012608;28;25052;-70
2023/07/31 04:42:40;;;;;;;22.25;6.90;;;;;;;;;;5003176;28;25053;-68
2023/07/31 04:45:08;;;;;;;25.00;6.85;;;;;;;;;;5016720;28;25137;-67
2023/07/31 04:47:34;;;;;;;29.10;7.60;;;;;;;;;;5010189;28;25117;-66
2023/07/31 04:50:00;;;;;;;24.50;7.30;;;;;;;;;;5011427;28;25087;-66
2023/07/31 04:52:26;;;;;;;33.78;8.90;;;;;;;;;;5008086;28;25070;-65
2023/07/31 04:54:52;;;;;;;31.75;7.55;;;;;;;;;;5003660;28;25070;-66
2023/07/31 04:57:18;;;;;;;24.10;7.25;;;;;;;;;;5004632;28;25052;-65
2023/07/31 04:59:44;;;;;;;23.67;6.85;;;;;;;;;;5002467;28;25134;-64
2023/07/31 05:02:13;;;;;;;18.00;6.75;;;;;;;;;;5007651;28;25110;-66
2023/07/31 05:04:39;;;;;;;23.30;6.97;;;;;;;;;;5006506;28;25057;-65
2023/07/31 05:07:05;;;;;;;19.60;7.35;;;;;;;;;;5006908;28;25184;-66
2023/07/31 05:09:31;;;;;;;16.60;6.80;;;;;;;;;;5007029;28;25053;-66
2023/07/31 05:11:57;;;;;;;21.50;6.72;;;;;;;;;;5003816;28;25073;-69
2023/07/31 05:14:23;;;;;;;24.02;6.60;;;;;;;;;;5008615;28;25079;-65
2023/07/31 05:16:49;;;;;;;17.25;6.55;;;;;;;;;;5005305;28;25148;-65
2023/07/31 05:19:15;;;;;;;17.95;7.15;;;;;;;;;;5014347;28;25164;-65
2023/07/31 05:21:41;;;;;;;17.25;6.57;;;;;;;;;;5001094;28;25162;-65
2023/07/31 05:24:07;;;;;;;21.55;6.80;;;;;;;;;;5001453;28;25052;-67
2023/07/31 05:26:33;;;;;;;24.48;7.30;;;;;;;;;;5006499;28;25075;-66
2023/07/31 05:28:59;;;;;;;15.82;5.85;;;;;;;;;;5004300;28;25062;-64
2023/07/31 05:31:25;;;;;;;18.17;5.88;;;;;;;;;;5011515;28;25061;-68
2023/07/31 05:33:51;;;;;;;16.27;5.53;;;;;;;;;;5001014;28;25082;-66
2023/07/31 05:36:17;;;;;;;15.45;5.60;;;;;;;;;;5003351;28;25071;-65
2023/07/31 05:38:44;;;;;;;19.45;6.28;;;;;;;;;;4999620;28;25077;-65
2023/07/31 05:41:10;;;;;;;13.55;5.78;;;;;;;;;;5005567;28;25067;-66
2023/07/31 05:43:37;;;;;;;18.48;5.40;;;;;;;;;;5010185;28;25083;-67
2023/07/31 05:46:03;;;;;;;15.63;6.32;;;;;;;;;;4996723;28;25059;-66
2023/07/31 05:48:29;;;;;;;13.77;5.80;;;;;;;;;;5007582;28;25046;-66
2023/07/31 05:50:55;;;;;;;14.43;5.88;;;;;;;;;;5002088;28;25051;-66
2023/07/31 05:53:21;;;;;;;16.75;6.40;;;;;;;;;;5001054;28;25100;-68
2023/07/31 05:55:47;;;;;;;13.43;5.93;;;;;;;;;;5008291;28;25144;-67
2023/07/31 05:58:13;;;;;;;16.98;6.72;;;;;;;;;;4997145;28;25060;-67
2023/07/31 06:00:40;;;;;;;18.13;6.20;;;;;;;;;;5005188;28;25115;-66
2023/07/31 06:03:06;;;;;;;11.95;5.57;;;;;;;;;;5004619;28;25129;-68
2023/07/31 06:05:32;;;;;;;17.23;6.88;;;;;;;;;;5011615;28;25060;-66
2023/07/31 06:07:59;;;;;;;25.48;6.68;;;;;;;;;;5016287;28;25065;-68
2023/07/31 06:10:25;;;;;;;13.68;6.25;;;;;;;;;;5007831;28;25123;-68
2023/07/31 06:12:51;;;;;;;25.00;7.78;;;;;;;;;;5006306;28;25059;-66
2023/07/31 06:15:19;;;;;;;19.98;7.57;;;;;;;;;;5005096;28;25066;-65
2023/07/31 06:17:44;;;;;;;15.32;6.38;;;;;;;;;;5003384;28;25138;-65
2023/07/31 06:20:11;;;;;;;19.42;6.95;;;;;;;;;;4996299;28;25055;-67
2023/07/31 06:22:37;;;;;;;18.85;7.25;;;;;;;;;;5007882;28;25096;-65
2023/07/31 06:25:03;;;;;;;20.05;6.57;;;;;;;;;;5017718;28;25043;-67
2023/07/31 06:27:29;;;;;;;17.73;6.00;;;;;;;;;;5012428;28;25089;-66
2023/07/31 06:29:55;;;;;;;17.58;6.95;;;;;;;;;;4999760;28;25134;-66
2023/07/31 06:32:21;;;;;;;17.75;6.32;;;;;;;;;;5007041;28;25076;-67
2023/07/31 06:34:47;;;;;;;17.05;6.90;;;;;;;;;;5018328;28;25100;-65
2023/07/31 06:37:13;;;;;;;17.73;6.45;;;;;;;;;;5002609;28;25117;-67
2023/07/31 06:39:39;;;;;;;16.90;6.40;;;;;;;;;;5007285;28;25114;-66
2023/07/31 06:42:05;;;;;;;14.80;6.20;;;;;;;;;;5010737;28;25100;-66
2023/07/31 06:44:31;;;;;;;12.20;5.93;;;;;;;;;;5008685;28;25144;-65
2023/07/31 06:46:57;;;;;;;14.60;6.35;;;;;;;;;;5006266;28;25167;-65
2023/07/31 06:49:23;;;;;;;16.38;5.72;;;;;;;;;;5009586;28;25063;-65
2023/07/31 06:51:49;;;;;;;14.38;5.85;;;;;;;;;;5007356;28;25049;-64
2023/07/31 06:54:15;;;;;;;12.02;5.32;;;;;;;;;;5003002;28;25142;-66
2023/07/31 06:56:40;;;;;;;12.25;5.55;;;;;;;;;;5002933;28;25067;-65
2023/07/31 06:59:06;;;;;;;9.25;4.93;;;;;;;;;;5011562;28;25154;-68
2023/07/31 07:01:32;;;;;;;17.92;5.32;;;;;;;;;;5009610;28;25082;-66
2023/07/31 07:03:58;;;;;;;11.70;5.10;;;;;;;;;;5001713;28;25059;-65
2023/07/31 07:06:24;;;;;;;6.80;3.90;;;;;;;;;;5010152;28;25102;-65
2023/07/31 07:08:50;;;;;;;9.95;5.10;;;;;;;;;;5010958;28;25097;-67
2023/07/31 07:11:16;;;;;;;8.70;4.00;;;;;;;;;;5000589;28;25145;-65
2023/07/31 07:13:42;;;;;;;7.18;3.88;;;;;;;;;;5006582;28;25067;-66
2023/07/31 07:16:10;;;;;;;6.65;3.45;;;;;;;;;;5005197;28;25075;-63
2023/07/31 07:18:36;;;;;;;10.45;4.13;;;;;;;;;;5000893;28;25047;-65
2023/07/31 07:21:02;;;;;;;7.10;3.70;;;;;;;;;;5000540;28;25070;-66
2023/07/31 07:23:28;;;;;;;7.95;3.50;;;;;;;;;;5013770;28;25064;-65
2023/07/31 07:25:54;;;;;;;10.43;3.58;;;;;;;;;;5007842;28;25160;-66
2023/07/31 07:28:20;;;;;;;10.23;4.15;;;;;;;;;;5015608;28;25091;-66
2023/07/31 07:30:52;;;;;;;9.35;3.83;;;;;;;;;;5000590;28;25073;-66
2023/07/31 07:33:18;;;;;;;9.85;4.05;;;;;;;;;;4997972;28;25055;-64
2023/07/31 07:35:44;;;;;;;5.82;3.40;;;;;;;;;;4999699;28;25071;-66
2023/07/31 07:38:10;;;;;;;4.60;3.45;;;;;;;;;;5005402;28;25044;-66
2023/07/31 07:40:39;;;;;;;8.73;3.63;;;;;;;;;;5004850;28;24755;-67
2023/07/31 07:43:06;;;;;;;4.25;3.20;;;;;;;;;;5011714;28;25080;-67
2023/07/31 07:45:31;;;;;;;6.07;3.55;;;;;;;;;;5007260;28;25076;-65
2023/07/31 07:47:58;;;;;;;4.65;2.95;;;;;;;;;;5012149;28;25060;-66
2023/07/31 07:50:25;;;;;;;6.75;3.90;;;;;;;;;;5005480;28;25145;-66
2023/07/31 07:52:51;;;;;;;6.00;3.80;;;;;;;;;;5000345;28;25060;-66
2023/07/31 07:55:17;;;;;;;8.27;3.38;;;;;;;;;;5000145;28;25084;-65
2023/07/31 07:57:44;;;;;;;11.18;3.58;;;;;;;;;;4992868;28;25069;-65
2023/07/31 08:00:10;;;;;;;7.15;3.42;;;;;;;;;;5005349;28;25076;-65
2023/07/31 08:02:36;;;;;;;12.27;3.63;;;;;;;;;;5015194;28;25088;-65
2023/07/31 08:05:03;;;;;;;6.47;3.60;;;;;;;;;;5007845;28;25162;-64
2023/07/31 08:07:29;;;;;;;7.03;3.80;;;;;;;;;;5011202;28;25056;-67
2023/07/31 08:09:55;;;;;;;7.15;4.03;;;;;;;;;;5002881;28;25062;-65
2023/07/31 08:12:21;;;;;;;6.05;3.78;;;;;;;;;;5007067;28;25060;-66
2023/07/31 08:14:47;;;;;;;5.78;3.63;;;;;;;;;;5013899;28;25063;-64
2023/07/31 08:17:12;;;;;;;8.98;3.53;;;;;;;;;;5009797;28;25059;-66
2023/07/31 08:19:38;;;;;;;6.28;3.88;;;;;;;;;;5021997;28;25041;-65
2023/07/31 08:22:04;;;;;;;5.90;3.75;;;;;;;;;;5011512;28;25081;-65
2023/07/31 08:24:30;;;;;;;6.15;3.97;;;;;;;;;;5007838;28;25111;-66
2023/07/31 08:26:56;;;;;;;9.52;3.97;;;;;;;;;;5016591;28;25051;-65
2023/07/31 08:29:22;;;;;;;8.38;3.83;;;;;;;;;;5011580;28;25065;-65
2023/07/31 08:31:48;;;;;;;5.88;4.20;;;;;;;;;;5008811;28;25052;-68
2023/07/31 08:34:14;;;;;;;8.10;3.90;;;;;;;;;;5016556;28;25064;-65
2023/07/31 08:36:40;;;;;;;9.13;4.88;;;;;;;;;;5013981;28;25071;-66
2023/07/31 08:39:06;;;;;;;6.10;3.47;;;;;;;;;;5000266;28;25104;-65
2023/07/31 08:41:32;;;;;;;11.23;4.10;;;;;;;;;;5010374;28;25081;-65
2023/07/31 08:43:59;;;;;;;7.70;4.15;;;;;;;;;;5013985;28;25076;-65
2023/07/31 08:46:25;;;;;;;9.20;5.25;;;;;;;;;;5003762;28;25161;-65
2023/07/31 08:48:52;;;;;;;11.57;4.60;;;;;;;;;;5010191;28;25057;-67
2023/07/31 08:51:18;;;;;;;10.45;5.47;;;;;;;;;;5008648;28;26247;-64
2023/07/31 08:53:44;;;;;;;11.98;5.30;;;;;;;;;;5006933;28;25049;-65
2023/07/31 08:56:12;;;;;;;10.73;5.20;;;;;;;;;;5006200;28;25142;-66
2023/07/31 08:58:38;;;;;;;8.88;4.63;;;;;;;;;;5013213;28;25073;-66
2023/07/31 09:01:05;;;;;;;7.25;5.20;;;;;;;;;;5016515;28;25094;-66
2023/07/31 09:03:34;;;;;;;10.00;4.68;;;;;;;;;;4997238;28;25069;-65
2023/07/31 09:06:00;;;;;;;9.52;5.25;;;;;;;;;;5012374;28;25066;-66
2023/07/31 09:08:30;;;;;;;10.73;5.25;;;;;;;;;;5005937;28;25050;-64
2023/07/31 09:10:59;;;;;;;8.85;4.78;;;;;;;;;;5003226;28;25099;-66
2023/07/31 09:13:25;;;;;;;10.77;5.82;;;;;;;;;;5012350;28;25046;-65
2023/07/31 09:15:51;;;;;;;8.38;4.80;;;;;;;;;;5012929;28;25064;-65
2023/07/31 09:18:20;;;;;;;9.98;5.20;;;;;;;;;;5006064;28;25131;-64
2023/07/31 09:20:46;;;;;;;8.40;5.35;;;;;;;;;;5002390;28;25088;-65
2023/07/31 09:23:13;;;;;;;9.20;4.88;;;;;;;;;;5015132;28;25108;-65
2023/07/31 09:25:39;;;;;;;8.40;4.97;;;;;;;;;;5016807;28;25070;-66
2023/07/31 09:28:06;;;;;;;8.63;4.60;;;;;;;;;;5009765;28;25049;-64
2023/07/31 09:30:44;;;;;;;8.32;5.20;;;;;;;;;;5019181;28;25044;-68
2023/07/31 09:33:10;;;;;;;9.10;4.90;;;;;;;;;;5017532;28;25061;-66
2023/07/31 09:35:40;;;;;;;6.85;4.53;;;;;;;;;;5016212;28;25107;-66
2023/07/31 09:38:10;;;;;;;7.50;4.43;;;;;;;;;;5004061;28;25112;-66
2023/07/31 09:40:40;;;;;;;9.15;4.32;;;;;;;;;;5013279;28;25076;-71
2023/07/31 09:43:13;;;;;;;7.78;3.90;;;;;;;;;;5012061;28;25058;-67
2023/07/31 09:45:40;;;;;;;11.10;4.55;;;;;;;;;;5014440;28;25081;-67
2023/07/31 09:48:10;;;;;;;7.35;4.70;;;;;;;;;;5006095;28;25115;-67
2023/07/31 09:50:40;;;;;;;5.60;3.95;;;;;;;;;;5014086;28;25074;-64
2023/07/31 09:53:07;;;;;;;5.57;3.90;;;;;;;;;;5004898;28;25094;-66
2023/07/31 09:55:33;;;;;;;6.43;3.95;;;;;;;;;;5011576;28;25054;-64
2023/07/31 09:57:59;;;;;;;5.22;4.10;;;;;;;;;;5012214;28;25065;-66
2023/07/31 10:00:28;;;;;;;9.13;4.03;;;;;;;;;;5023210;28;25093;-67
2023/07/31 10:02:54;;;;;;;5.55;3.80;;;;;;;;;;5017165;28;25059;-66
2023/07/31 10:05:21;;;;;;;8.52;4.20;;;;;;;;;;5017864;28;25100;-65
2023/07/31 10:07:56;;;;;;;5.45;3.63;;;;;;;;;;5016403;28;25048;-66
2023/07/31 10:10:23;;;;;;;5.35;3.78;;;;;;;;;;5006185;28;25132;-66
2023/07/31 10:12:50;;;;;;;7.28;3.90;;;;;;;;;;5002455;28;25104;-66
2023/07/31 10:15:16;;;;;;;4.97;3.58;;;;;;;;;;5010322;28;25063;-66
2023/07/31 10:17:42;;;;;;;9.20;3.80;;;;;;;;;;5016205;28;25073;-65
2023/07/31 10:20:08;;;;;;;5.63;4.07;;;;;;;;;;5011155;28;25119;-66
2023/07/31 10:22:35;;;;;;;6.10;4.05;;;;;;;;;;5002665;28;25070;-65
2023/07/31 10:25:01;;;;;;;11.23;4.85;;;;;;;;;;5012162;28;25081;-64
2023/07/31 10:27:27;;;;;;;6.38;4.20;;;;;;;;;;4985645;28;25110;-65
2023/07/31 10:29:55;;;;;;;6.82;4.30;;;;;;;;;;5006611;28;25160;-66
2023/07/31 10:32:21;;;;;;;5.50;4.07;;;;;;;;;;5016516;28;25174;-67
2023/07/31 10:34:48;;;;;;;7.13;4.10;;;;;;;;;;5016246;28;25066;-67
2023/07/31 10:37:21;;;;;;;8.55;4.45;;;;;;;;;;5009404;28;25070;-64
2023/07/31 10:39:55;;;;;;;8.65;4.47;;;;;;;;;;4999912;28;25153;-66
2023/07/31 10:42:27;;;;;;;6.97;4.25;;;;;;;;;;5010887;28;25083;-65
2023/07/31 10:44:56;;;;;;;10.05;4.55;;;;;;;;;;5004271;28;25073;-67
2023/07/31 10:47:22;;;;;;;14.88;6.18;;;;;;;;;;5007534;28;25073;-64
2023/07/31 10:49:49;;;;;;;7.93;4.82;;;;;;;;;;5011403;28;25143;-67
2023/07/31 10:52:22;;;;;;;6.03;4.82;;;;;;;;;;5015125;28;25090;-66
2023/07/31 10:54:48;;;;;;;8.38;4.70;;;;;;;;;;5000888;28;25046;-66
2023/07/31 10:57:21;;;;;;;6.55;4.30;;;;;;;;;;5006368;28;25133;-65
2023/07/31 10:59:48;;;;;;;9.38;4.82;;;;;;;;;;5000276;28;25071;-65
2023/07/31 11:02:30;;;;;;;7.47;4.68;;;;;;;;;;5000885;28;25070;-65
2023/07/31 11:05:11;;;;;;;6.90;4.00;;;;;;;;;;4997555;28;25049;-65
2023/07/31 11:07:47;;;;;;;8.67;4.30;;;;;;;;;;5003951;28;25057;-68
2023/07/31 11:10:16;;;;;;;5.47;3.83;;;;;;;;;;5000215;28;25180;-63
2023/07/31 11:12:42;;;;;;;5.68;3.70;;;;;;;;;;5008956;28;25115;-64
2023/07/31 11:15:11;;;;;;;7.25;3.83;;;;;;;;;;5002361;28;25102;-65
2023/07/31 11:17:38;;;;;;;4.60;3.60;;;;;;;;;;5003606;28;25056;-65
2023/07/31 11:20:05;;;;;;;5.45;3.17;;;;;;;;;;5005366;28;25135;-66
2023/07/31 11:22:31;;;;;;;3.33;2.80;;;;;;;;;;4997212;28;25115;-64
2023/07/31 11:24:57;;;;;;;5.90;3.13;;;;;;;;;;5011024;28;25051;-65
2023/07/31 11:27:23;;;;;;;3.88;3.42;;;;;;;;;;4995769;28;25060;-65
2023/07/31 11:29:51;;;;;;;5.05;3.50;;;;;;;;;;4998552;28;25153;-66
2023/07/31 11:32:17;;;;;;;4.35;3.90;;;;;;;;;;5005438;28;25061;-65
2023/07/31 11:34:53;;;;;;;7.15;3.97;;;;;;;;;;5010938;28;25089;-64
2023/07/31 11:37:19;;;;;;;6.43;4.38;;;;;;;;;;5005090;28;25082;-66
2023/07/31 11:39:59;;;;;;;6.25;4.38;;;;;;;;;;5004441;28;25167;-63
2023/07/31 11:42:25;;;;;;;6.38;4.28;;;;;;;;;;5006290;28;25059;-65
2023/07/31 11:44:51;;;;;;;5.32;4.30;;;;;;;;;;5016312;28;25084;-65
2023/07/31 11:47:17;;;;;;;4.38;3.75;;;;;;;;;;5009643;28;25059;-66
2023/07/31 11:49:44;;;;;;;6.38;3.63;;;;;;;;;;5006497;28;25058;-65
2023/07/31 11:52:11;;;;;;;5.05;3.92;;;;;;;;;;5016398;28;25067;-65
2023/07/31 11:54:37;;;;;;;7.15;4.20;;;;;;;;;;5014416;28;25065;-67
2023/07/31 11:57:03;;;;;;;6.28;3.95;;;;;;;;;;5018876;28;25149;-65
2023/07/31 11:59:30;;;;;;;5.57;4.00;;;;;;;;;;5003322;28;25085;-66
2023/07/31 12:01:56;;;;;;;4.57;3.50;;;;;;;;;;4999599;28;25050;-66
2023/07/31 12:04:22;;;;;;;7.20;3.80;;;;;;;;;;5007701;28;25071;-66
2023/07/31 12:06:48;;;;;;;5.07;3.30;;;;;;;;;;5020326;28;25143;-64
2023/07/31 12:09:17;;;;;;;11.35;4.68;;;;;;;;;;5001826;28;25073;-66
2023/07/31 12:11:44;;;;;;;6.50;4.03;;;;;;;;;;5016868;28;25093;-67
2023/07/31 12:14:20;;;;;;;6.13;3.80;;;;;;;;;;5008713;28;25055;-65
2023/07/31 12:16:46;;;;;;;5.40;4.10;;;;;;;;;;5015067;28;25153;-65
2023/07/31 12:19:12;;;;;;;7.97;4.25;;;;;;;;;;5010454;28;25072;-65
2023/07/31 12:21:38;;;;;;;6.72;3.90;;;;;;;;;;5013687;28;25067;-67
2023/07/31 12:24:04;;;;;;;5.82;3.78;;;;;;;;;;5008246;28;25096;-64
2023/07/31 12:26:36;;;;;;;5.43;3.75;;;;;;;;;;5001754;28;25077;-66
2023/07/31 12:29:02;;;;;;;5.28;3.47;;;;;;;;;;5009517;28;25277;-66
2023/07/31 12:31:29;;;;;;;7.18;4.07;;;;;;;;;;5008933;28;25055;-64
2023/07/31 12:33:56;;;;;;;5.90;4.25;;;;;;;;;;5004518;28;25080;-63
2023/07/31 12:36:23;;;;;;;6.13;3.92;;;;;;;;;;5009748;28;25140;-64
2023/07/31 12:38:50;;;;;;;6.50;4.38;;;;;;;;;;5017319;28;25065;-65
2023/07/31 12:41:16;;;;;;;6.72;4.60;;;;;;;;;;5005400;28;25064;-64
2023/07/31 12:43:42;;;;;;;5.07;4.18;;;;;;;;;;5007946;28;25134;-65
2023/07/31 12:46:08;;;;;;;7.10;4.57;;;;;;;;;;4999884;28;25046;-65
2023/07/31 12:48:35;;;;;;;7.78;4.53;;;;;;;;;;5000396;28;25073;-64
2023/07/31 12:51:01;;;;;;;7.28;5.05;;;;;;;;;;5003527;28;25152;-63
2023/07/31 12:53:27;;;;;;;7.90;5.10;;;;;;;;;;5012057;28;25161;-64
2023/07/31 12:55:53;;;;;;;5.90;5.18;;;;;;;;;;4997833;28;25086;-64
2023/07/31 12:58:19;;;;;;;12.20;6.47;;;;;;;;;;5002380;28;25069;-64
2023/07/31 13:00:45;;;;;;;8.93;5.80;;;;;;;;;;5003037;28;25078;-67
2023/07/31 13:03:11;;;;;;;11.02;6.20;;;;;;;;;;5001825;28;25105;-64
2023/07/31 13:05:37;;;;;;;10.38;6.88;;;;;;;;;;5001138;28;25065;-65
2023/07/31 13:08:03;;;;;;;10.77;6.70;;;;;;;;;;5006857;28;25079;-62
2023/07/31 13:10:29;;;;;;;8.50;6.30;;;;;;;;;;5008365;28;25066;-65
2023/07/31 13:12:55;;;;;;;10.00;5.85;;;;;;;;;;5004475;28;25055;-64
2023/07/31 13:15:21;;;;;;;11.27;6.32;;;;;;;;;;5002433;28;25058;-65
2023/07/31 13:17:47;;;;;;;9.50;6.63;;;;;;;;;;5007225;28;25055;-66
2023/07/31 13:20:13;;;;;;;10.60;6.35;;;;;;;;;;5007393;28;25089;-65
2023/07/31 13:22:39;;;;;;;9.80;6.20;;;;;;;;;;4998615;28;25101;-65
2023/07/31 13:25:06;;;;;;;13.48;8.93;;;;;;;;;;5013905;28;25070;-65
2023/07/31 13:27:32;;;;;;;15.75;10.93;;;;;;;;;;5008902;28;25070;-66
2023/07/31 13:29:58;;;;;;;19.05;12.73;;;;;;;;;;5011071;28;25082;-65
2023/07/31 13:32:24;;;;;;;16.95;12.70;;;;;;;;;;4995777;28;25052;-65
2023/07/31 13:34:50;;;;;;;17.50;11.95;;;;;;;;;;4996914;28;25057;-65
2023/07/31 13:37:16;;;;;;;16.58;10.32;;;;;;;;;;5015346;28;25068;-63
2023/07/31 13:39:42;;;;;;;13.13;8.15;;;;;;;;;;4999664;28;25100;-62
2023/07/31 13:42:11;;;;;;;11.00;8.75;;;;;;;;;;5015156;28;25054;-64
2023/07/31 13:44:37;;;;;;;13.63;8.02;;;;;;;;;;5011936;28;25078;-66
2023/07/31 13:47:03;;;;;;;13.52;8.02;;;;;;;;;;5003780;28;25101;-66
2023/07/31 13:49:30;;;;;;;12.57;7.85;;;;;;;;;;5019011;28;25070;-65
2023/07/31 13:51:56;;;;;;;19.15;8.50;;;;;;;;;;5001797;28;25129;-64
2023/07/31 13:54:25;;;;;;;10.70;7.95;;;;;;;;;;5010887;28;25086;-65
2023/07/31 13:56:51;;;;;;;12.32;8.27;;;;;;;;;;5002476;28;25064;-67
2023/07/31 13:59:18;;;;;;;10.70;7.90;;;;;;;;;;5025358;28;25058;-67
2023/07/31 14:01:44;;;;;;;12.05;7.78;;;;;;;;;;5015313;28;25094;-66
2023/07/31 14:04:10;;;;;;;15.45;8.95;;;;;;;;;;5028731;28;25060;-66
2023/07/31 14:06:36;;;;;;;20.33;10.07;;;;;;;;;;5021567;28;25087;-66
2023/07/31 14:09:03;;;;;;;16.23;10.23;;;;;;;;;;5014355;28;25081;-66
2023/07/31 14:11:29;;;;;;;14.27;11.35;;;;;;;;;;5019579;28;25052;-65
2023/07/31 14:13:56;;;;;;;16.33;11.68;;;;;;;;;;5011898;28;25078;-66
2023/07/31 14:16:22;;;;;;;17.42;11.45;;;;;;;;;;5009524;28;25082;-65
2023/07/31 14:18:48;;;;;;;11.50;8.98;;;;;;;;;;4997947;28;25059;-65
2023/07/31 14:21:14;;;;;;;16.65;10.02;;;;;;;;;;5010193;28;25072;-66
2023/07/31 14:23:41;;;;;;;15.50;9.70;;;;;;;;;;5003399;28;25107;-65
2023/07/31 14:26:07;;;;;;;12.55;8.43;;;;;;;;;;4999458;28;25077;-67
2023/07/31 14:28:33;;;;;;;11.43;8.60;;;;;;;;;;5002828;28;25088;-66
2023/07/31 14:30:59;;;;;;;15.30;9.73;;;;;;;;;;5014190;28;25151;-66